Time;durP1;ratioP1;P1;durP2;ratioP2;P2;SDS_P1;SDS_P2;PMS_P1;PMS_P2;Temp;Humidity;BMP_temperature;BMP_pressure;BME280_temperature;BME280_humidity;BME280_pressure;Samples;Min_cycle;Max_cycle;Signal;HPM_P1;HPM_P2
2023/01/15 00:01:00;;;;;;;12.30;11.90;;;7.10;99.90;;;;;;5034559;28;20425;-71
2023/01/15 00:03:26;;;;;;;12.30;11.90;;;7.10;99.90;;;;;;5021666;28;20139;-72
2023/01/15 00:05:51;;;;;;;13.07;12.57;;;7.10;99.90;;;;;;5034543;28;20030;-71
2023/01/15 00:08:17;;;;;;;12.85;12.35;;;7.10;99.90;;;;;;5021213;28;20021;-71
2023/01/15 00:10:43;;;;;;;11.88;11.48;;;7.10;99.90;;;;;;5021243;28;20018;-71
2023/01/15 00:13:08;;;;;;;13.07;12.57;;;7.20;99.90;;;;;;5027950;28;20029;-72
2023/01/15 00:15:35;;;;;;;12.57;12.18;;;7.20;99.90;;;;;;5026244;28;20025;-72
2023/01/15 00:18:00;;;;;;;11.57;11.18;;;7.20;99.90;;;;;;5034005;28;20029;-71
2023/01/15 00:20:26;;;;;;;13.05;12.57;;;7.30;99.90;;;;;;5021347;28;20036;-71
2023/01/15 00:22:52;;;;;;;12.02;11.63;;;7.30;99.90;;;;;;5027686;28;20029;-71
2023/01/15 00:28:02;;;;;;;10.18;9.77;;;7.40;99.90;;;;;;5014124;28;20029;-71
2023/01/15 00:30:27;;;;;;;11.88;11.48;;;7.40;99.90;;;;;;5029829;28;20395;-71
2023/01/15 00:32:53;;;;;;;12.48;11.98;;;7.40;99.90;;;;;;5033498;28;20034;-71
2023/01/15 00:35:20;;;;;;;11.45;11.05;;;7.40;99.90;;;;;;5034039;28;20030;-71
2023/01/15 00:37:46;;;;;;;11.90;11.40;;;7.40;99.90;;;;;;5033578;28;20068;-71
2023/01/15 00:40:13;;;;;;;12.70;12.23;;;7.40;99.90;;;;;;5033933;28;20071;-72
2023/01/15 00:42:39;;;;;;;12.07;11.57;;;7.40;99.90;;;;;;5033921;28;20091;-71
2023/01/15 00:45:08;;;;;;;14.38;13.82;;;7.50;99.90;;;;;;5033944;28;20479;-71
2023/01/15 00:47:39;;;;;;;11.55;11.15;;;7.50;99.90;;;;;;5032265;28;20095;-71
2023/01/15 00:50:06;;;;;;;10.95;10.55;;;7.50;99.90;;;;;;5032469;28;20112;-71
2023/01/15 00:52:32;;;;;;;11.48;11.07;;;7.50;99.90;;;;;;5033467;28;20109;-71
2023/01/15 00:54:58;;;;;;;11.20;10.80;;;7.50;99.90;;;;;;5033687;28;20112;-71
2023/01/15 00:57:23;;;;;;;13.90;13.40;;;7.50;99.90;;;;;;5023066;28;20030;-71
2023/01/15 00:59:49;;;;;;;12.10;11.70;;;7.50;99.90;;;;;;5017578;28;20029;-72
2023/01/15 01:02:14;;;;;;;11.52;10.90;;;7.50;99.90;;;;;;5024038;28;20033;-72
2023/01/15 01:04:40;;;;;;;11.40;11.00;;;7.50;99.90;;;;;;5030596;28;20053;-72
2023/01/15 01:07:06;;;;;;;11.93;11.43;;;7.50;99.90;;;;;;5032753;28;20084;-72
2023/01/15 01:09:31;;;;;;;12.32;11.93;;;7.60;99.90;;;;;;5027023;28;20021;-72
2023/01/15 01:11:57;;;;;;;12.95;12.45;;;7.60;99.90;;;;;;5032622;28;20483;-72
2023/01/15 01:14:23;;;;;;;12.15;11.75;;;7.50;99.90;;;;;;5030699;28;20033;-73
2023/01/15 01:16:48;;;;;;;12.40;12.00;;;7.60;99.90;;;;;;5033093;28;20029;-72
2023/01/15 01:19:19;;;;;;;12.05;11.65;;;7.60;99.90;;;;;;5032069;28;20108;-73
2023/01/15 01:21:45;;;;;;;12.20;11.80;;;7.60;99.90;;;;;;5033188;28;20025;-72
2023/01/15 01:24:22;;;;;;;11.75;11.25;;;7.60;99.90;;;;;;5029435;28;20487;-72
2023/01/15 01:26:49;;;;;;;12.68;12.23;;;7.60;99.90;;;;;;5025102;28;20387;-72
2023/01/15 01:29:17;;;;;;;14.95;14.45;;;7.60;99.90;;;;;;5033215;28;20017;-73
2023/01/15 01:31:43;;;;;;;12.43;12.02;;;7.60;99.90;;;;;;5033206;28;20029;-71
2023/01/15 01:34:10;;;;;;;13.45;12.93;;;7.60;99.90;;;;;;5033142;28;20026;-71
2023/01/15 01:36:37;;;;;;;12.98;12.48;;;7.60;99.90;;;;;;5033257;28;20026;-71
2023/01/15 01:39:05;;;;;;;13.02;12.52;;;7.60;99.90;;;;;;5032672;28;20056;-71
2023/01/15 01:41:31;;;;;;;11.98;11.57;;;7.60;99.90;;;;;;5031838;28;20029;-71
2023/01/15 01:44:00;;;;;;;11.38;10.98;;;7.60;99.90;;;;;;5022032;28;20021;-71
2023/01/15 01:46:27;;;;;;;12.68;12.23;;;7.50;99.90;;;;;;5032602;28;20025;-72
2023/01/15 01:49:01;;;;;;;12.45;12.05;;;7.60;99.90;;;;;;5032559;28;20018;-72
2023/01/15 01:51:30;;;;;;;13.95;13.45;;;7.60;99.90;;;;;;5032816;28;20033;-72
2023/01/15 01:53:58;;;;;;;10.25;9.85;;;7.50;99.90;;;;;;5024386;28;20499;-71
2023/01/15 01:56:24;;;;;;;13.23;12.73;;;7.60;99.90;;;;;;5026253;28;20168;-72
2023/01/15 01:58:53;;;;;;;13.60;13.10;;;7.60;99.90;;;;;;5021081;28;20029;-72
2023/01/15 02:01:20;;;;;;;10.18;9.77;;;7.50;99.90;;;;;;5032672;28;20100;-71
2023/01/15 02:03:46;;;;;;;14.65;14.15;;;7.60;99.90;;;;;;5030069;28;20048;-71
2023/01/15 02:06:14;;;;;;;14.55;14.05;;;7.60;99.90;;;;;;5031187;28;20057;-70
2023/01/15 02:08:40;;;;;;;11.45;11.05;;;7.60;99.90;;;;;;5032131;28;20017;-71
2023/01/15 02:11:11;;;;;;;12.73;12.25;;;7.60;99.90;;;;;;5029212;28;20404;-71
2023/01/15 02:13:39;;;;;;;11.20;10.80;;;7.60;99.90;;;;;;5031145;28;20026;-71
2023/01/15 02:16:05;;;;;;;12.40;12.00;;;7.60;99.90;;;;;;5032273;28;20494;-71
2023/01/15 02:18:30;;;;;;;11.75;11.35;;;7.70;99.90;;;;;;5031951;28;20029;-71
2023/01/15 02:21:09;;;;;;;12.40;12.00;;;7.70;99.90;;;;;;5018803;28;20029;-71
2023/01/15 02:24:06;;;;;;;12.05;11.65;;;7.70;99.90;;;;;;5019789;28;20109;-70
2023/01/15 02:27:04;;;;;;;13.85;13.35;;;7.70;99.90;;;;;;5021054;28;20076;-71
2023/01/15 02:29:53;;;;;;;14.07;13.57;;;7.70;99.90;;;;;;5020130;28;20022;-71
2023/01/15 02:32:44;;;;;;;16.75;16.15;;;7.80;99.90;;;;;;5029547;28;20398;-71
2023/01/15 02:35:27;;;;;;;12.30;11.90;;;7.90;99.90;;;;;;5019452;28;20132;-71
2023/01/15 02:37:57;;;;;;;12.80;12.30;;;7.90;99.90;;;;;;5022116;28;20073;-71
2023/01/15 02:40:25;;;;;;;14.32;13.82;;;7.90;99.90;;;;;;5025433;28;20033;-71
2023/01/15 02:42:53;;;;;;;12.27;11.88;;;7.90;99.90;;;;;;5022496;28;20028;-71
2023/01/15 02:45:32;;;;;;;14.23;13.73;;;7.90;99.90;;;;;;5018671;28;20483;-72
2023/01/15 02:48:02;;;;;;;12.52;12.10;;;7.60;99.90;;;;;;5030407;28;20027;-72
2023/01/15 02:50:35;;;;;;;12.00;11.52;;;8.00;99.90;;;;;;5025225;28;20515;-71
2023/01/15 02:53:04;;;;;;;14.55;14.05;;;8.00;99.90;;;;;;5025106;28;20375;-71
2023/01/15 02:55:34;;;;;;;14.07;13.57;;;8.00;99.90;;;;;;5019413;28;20480;-72
2023/01/15 02:58:03;;;;;;;13.30;12.80;;;8.00;99.90;;;;;;5016974;28;20041;-72
2023/01/15 03:00:35;;;;;;;13.00;12.40;;;8.00;99.90;;;;;;5031998;28;20028;-71
2023/01/15 03:03:12;;;;;;;11.35;10.95;;;8.00;99.90;;;;;;5018150;28;20022;-71
2023/01/15 03:05:42;;;;;;;14.32;13.82;;;8.00;99.90;;;;;;5019236;28;20041;-71
2023/01/15 03:08:08;;;;;;;14.68;14.18;;;8.10;99.90;;;;;;5023545;28;20605;-71
2023/01/15 03:10:48;;;;;;;12.90;12.40;;;8.00;99.90;;;;;;5023598;28;20363;-71
2023/01/15 03:13:25;;;;;;;15.02;14.52;;;8.00;99.90;;;;;;5018809;28;20025;-71
2023/01/15 03:18:45;;;;;;;15.57;14.98;;;8.00;99.90;;;;;;5019694;28;20614;-72
2023/01/15 03:21:15;;;;;;;13.50;13.00;;;7.90;99.90;;;;;;5024970;28;20103;-72
2023/01/15 03:23:46;;;;;;;14.68;14.18;;;8.00;99.90;;;;;;5024788;28;20022;-71
2023/01/15 03:26:12;;;;;;;13.98;13.48;;;7.90;99.90;;;;;;5019080;28;20022;-71
2023/01/15 03:28:40;;;;;;;16.33;15.73;;;7.90;99.90;;;;;;5029766;28;20028;-71
2023/01/15 03:31:05;;;;;;;14.20;13.70;;;7.90;99.90;;;;;;5031420;28;20018;-71
2023/01/15 03:33:32;;;;;;;14.02;13.52;;;7.90;99.90;;;;;;5031490;28;20018;-72
2023/01/15 03:36:00;;;;;;;13.95;13.45;;;7.90;99.90;;;;;;5031398;28;20018;-71
2023/01/15 03:38:28;;;;;;;14.68;14.18;;;7.90;99.90;;;;;;5016708;28;20041;-72
2023/01/15 03:41:03;;;;;;;14.80;14.30;;;7.90;99.90;;;;;;5020102;28;20556;-72
2023/01/15 03:43:41;;;;;;;14.43;13.93;;;7.90;99.90;;;;;;5017884;28;20033;-72
2023/01/15 03:46:24;;;;;;;13.93;13.43;;;7.90;99.90;;;;;;5020083;28;20026;-72
2023/01/15 03:48:50;;;;;;;14.32;13.82;;;7.90;99.90;;;;;;5018271;28;20017;-72
2023/01/15 03:51:38;;;;;;;14.90;14.40;;;7.90;99.90;;;;;;5031051;28;20028;-72
2023/01/15 03:54:10;;;;;;;15.35;14.77;;;7.90;99.90;;;;;;5020189;28;20033;-72
2023/01/15 03:56:47;;;;;;;14.00;13.50;;;7.90;99.90;;;;;;5013776;28;20037;-72
2023/01/15 03:59:20;;;;;;;15.35;14.77;;;7.90;99.90;;;;;;5023486;28;20032;-71
2023/01/15 04:01:50;;;;;;;14.32;13.82;;;7.90;99.90;;;;;;5018008;28;20113;-72
2023/01/15 04:04:16;;;;;;;15.27;14.70;;;7.90;99.90;;;;;;5031048;28;20045;-71
2023/01/15 04:06:42;;;;;;;14.90;14.40;;;7.90;99.90;;;;;;5030997;28;20029;-71
2023/01/15 04:09:11;;;;;;;17.40;16.80;;;7.90;99.90;;;;;;5034237;28;20030;-72
2023/01/15 04:11:37;;;;;;;17.75;17.15;;;8.00;99.90;;;;;;5027419;28;20026;-72
2023/01/15 04:14:03;;;;;;;16.23;15.63;;;7.90;99.90;;;;;;5028087;28;20022;-72
2023/01/15 04:16:30;;;;;;;15.30;14.75;;;7.90;99.90;;;;;;5021981;28;20029;-71
2023/01/15 04:18:56;;;;;;;17.15;16.55;;;7.90;99.90;;;;;;5020710;28;20084;-72
2023/01/15 04:21:22;;;;;;;15.65;15.05;;;8.00;99.90;;;;;;5034117;28;20034;-71
2023/01/15 04:23:48;;;;;;;16.23;15.63;;;7.90;99.90;;;;;;5033455;28;20022;-71
2023/01/15 04:26:14;;;;;;;18.35;17.65;;;7.90;99.90;;;;;;5021911;28;20540;-72
2023/01/15 04:28:40;;;;;;;16.92;16.33;;;7.90;99.90;;;;;;5033221;28;20403;-71
2023/01/15 04:31:06;;;;;;;18.10;17.42;;;7.90;99.90;;;;;;5021667;28;20487;-72
2023/01/15 04:33:32;;;;;;;18.05;17.35;;;7.90;99.90;;;;;;5034110;28;20040;-72
2023/01/15 04:36:02;;;;;;;15.80;15.20;;;7.90;99.90;;;;;;5032730;28;20032;-71
2023/01/15 04:38:28;;;;;;;16.73;16.13;;;7.80;99.90;;;;;;5032335;28;20030;-71
2023/01/15 04:46:23;;;;;;;19.20;18.50;;;7.80;99.90;;;;;;5021553;28;20075;-72
2023/01/15 04:48:49;;;;;;;15.80;15.20;;;7.80;99.90;;;;;;5033301;28;20029;-71
2023/01/15 04:51:15;;;;;;;18.67;17.98;;;7.80;99.90;;;;;;5034235;28;20018;-72
2023/01/15 04:53:41;;;;;;;18.75;18.05;;;7.80;99.90;;;;;;5020974;28;20033;-71
2023/01/15 04:56:06;;;;;;;19.05;18.35;;;7.80;99.90;;;;;;5021322;28;20033;-72
2023/01/15 04:58:33;;;;;;;19.98;19.27;;;7.80;99.90;;;;;;5026585;28;20029;-72
2023/01/15 05:01:03;;;;;;;18.55;17.85;;;7.80;99.90;;;;;;5026666;28;20471;-72
2023/01/15 05:03:30;;;;;;;18.92;18.23;;;7.80;99.90;;;;;;5020679;28;20025;-72
2023/01/15 05:06:01;;;;;;;19.55;18.85;;;7.80;99.90;;;;;;5032470;28;20022;-72
2023/01/15 05:08:27;;;;;;;19.38;18.67;;;7.80;99.90;;;;;;5033167;28;20022;-71
2023/01/15 05:10:53;;;;;;;18.92;18.23;;;7.80;99.90;;;;;;5019567;28;20036;-72
2023/01/15 05:13:18;;;;;;;18.98;18.27;;;7.80;99.90;;;;;;5013736;28;20053;-72
2023/01/15 05:15:45;;;;;;;19.65;18.95;;;7.80;99.90;;;;;;5013753;28;20034;-72
2023/01/15 05:18:13;;;;;;;18.40;17.70;;;7.80;99.90;;;;;;5018717;28;20083;-73
2023/01/15 05:20:40;;;;;;;18.60;17.90;;;7.90;99.90;;;;;;5018634;28;20029;-72
2023/01/15 05:23:06;;;;;;;17.20;16.60;;;7.90;99.90;;;;;;5033310;28;20032;-71
2023/01/15 05:25:32;;;;;;;18.48;17.77;;;7.80;99.90;;;;;;5033644;28;20029;-70
2023/01/15 05:27:57;;;;;;;18.45;17.75;;;7.90;99.90;;;;;;5024621;28;20048;-71
2023/01/15 05:30:23;;;;;;;19.15;18.45;;;7.90;99.90;;;;;;5026855;28;20076;-72
2023/01/15 05:32:48;;;;;;;16.90;16.30;;;7.90;99.90;;;;;;5021311;28;20026;-71
2023/01/15 05:35:14;;;;;;;19.45;18.75;;;7.90;99.90;;;;;;5024788;28;20083;-71
2023/01/15 05:37:39;;;;;;;16.23;15.63;;;7.80;99.90;;;;;;5032369;28;20029;-71
2023/01/15 05:40:05;;;;;;;13.18;12.68;;;8.00;99.90;;;;;;5019781;28;20036;-71
2023/01/15 05:42:31;;;;;;;19.40;18.70;;;8.00;99.90;;;;;;5024529;28;20030;-71
2023/01/15 05:44:56;;;;;;;15.82;15.18;;;8.00;99.90;;;;;;5025144;28;20036;-72
2023/01/15 05:47:22;;;;;;;27.25;26.25;;;7.90;99.90;;;;;;5020561;28;20017;-71
2023/01/15 05:49:49;;;;;;;18.15;17.27;;;7.80;99.90;;;;;;5032703;28;20021;-72
2023/01/15 05:52:14;;;;;;;21.17;20.38;;;7.70;99.90;;;;;;5031459;28;20116;-72
2023/01/15 05:54:40;;;;;;;24.63;23.73;;;7.60;99.90;;;;;;5019425;28;20165;-71
2023/01/15 05:57:05;;;;;;;25.77;24.77;;;7.40;99.90;;;;;;5022781;28;20022;-71
2023/01/15 05:59:32;;;;;;;21.48;20.67;;;7.30;99.90;;;;;;5026055;28;20025;-72
2023/01/15 06:01:58;;;;;;;20.98;20.17;;;7.10;99.90;;;;;;5021020;28;20100;-72
2023/01/15 06:04:24;;;;;;;25.70;24.70;;;7.00;99.90;;;;;;5017643;28;20093;-72
2023/01/15 06:06:51;;;;;;;22.25;21.45;;;7.00;99.90;;;;;;5020562;28;20391;-72
2023/01/15 06:09:18;;;;;;;26.60;25.60;;;7.00;99.90;;;;;;5029641;28;20034;-71
2023/01/15 06:11:44;;;;;;;25.27;24.33;;;7.00;99.90;;;;;;5012461;28;20057;-70
2023/01/15 06:14:13;;;;;;;25.80;24.80;;;6.90;99.90;;;;;;5027042;28;20048;-71
2023/01/15 06:16:39;;;;;;;20.63;19.85;;;6.90;99.90;;;;;;5030991;28;20029;-71
2023/01/15 06:19:06;;;;;;;21.85;21.05;;;6.90;99.90;;;;;;5031911;28;20593;-72
2023/01/15 06:21:33;;;;;;;22.33;21.52;;;6.90;99.90;;;;;;5030903;28;20399;-72
2023/01/15 06:23:59;;;;;;;22.00;21.20;;;6.90;99.90;;;;;;5032135;28;20025;-72
2023/01/15 06:26:25;;;;;;;24.25;23.35;;;6.90;99.90;;;;;;5032182;28;20022;-72
2023/01/15 06:28:51;;;;;;;25.02;24.13;;;6.90;99.90;;;;;;5029380;28;20044;-72
2023/01/15 06:31:19;;;;;;;20.02;19.33;;;6.90;99.90;;;;;;5020941;28;20025;-71
2023/01/15 06:33:44;;;;;;;23.10;22.25;;;6.90;99.90;;;;;;5017430;28;20032;-71
2023/01/15 06:36:16;;;;;;;17.15;16.55;;;6.90;99.90;;;;;;5022883;28;20034;-71
2023/01/15 06:38:42;;;;;;;25.13;24.23;;;6.80;99.90;;;;;;5025387;28;20509;-72
2023/01/15 06:47:32;;;;;;;22.13;21.33;;;6.70;99.90;;;;;;5025639;28;20096;-72
2023/01/15 06:49:34;;;;;;;20.23;19.52;;;6.60;99.90;;;;;;5013570;28;20067;-72
2023/01/15 06:52:00;;;;;;;21.75;20.95;;;6.60;99.90;;;;;;5031728;28;20798;-72
2023/01/15 06:54:26;;;;;;;20.00;19.30;;;6.50;99.90;;;;;;5018979;28;20095;-72
2023/01/15 06:56:51;;;;;;;20.77;20.00;;;6.50;99.90;;;;;;5027656;28;20475;-72
2023/01/15 06:59:18;;;;;;;28.77;26.13;;;6.40;99.90;;;;;;5029934;28;20084;-72
2023/01/15 07:01:43;;;;;;;15.70;15.10;;;6.30;99.90;;;;;;5010623;28;20030;-72
2023/01/15 07:04:09;;;;;;;21.38;20.58;;;6.30;99.90;;;;;;5022213;28;20029;-72
2023/01/15 07:06:34;;;;;;;20.30;19.58;;;6.30;99.90;;;;;;5029602;28;20053;-72
2023/01/15 07:09:00;;;;;;;19.08;18.38;;;6.20;99.90;;;;;;5017163;28;20058;-72
2023/01/15 07:11:26;;;;;;;19.70;19.00;;;6.20;99.90;;;;;;5023543;28;20018;-72
2023/01/15 07:14:04;;;;;;;19.40;18.70;;;6.20;99.90;;;;;;5023783;28;20040;-72
2023/01/15 07:16:34;;;;;;;20.83;20.02;;;6.20;99.90;;;;;;5018765;28;20017;-75
2023/01/15 07:19:00;;;;;;;16.25;15.65;;;6.10;99.90;;;;;;5029584;28;20025;-72
2023/01/15 07:21:26;;;;;;;18.17;17.48;;;6.20;99.90;;;;;;5024001;28;20108;-72
2023/01/15 07:23:51;;;;;;;18.05;17.42;;;6.40;99.90;;;;;;5023128;28;20129;-72
2023/01/15 07:26:17;;;;;;;16.23;15.63;;;6.20;99.90;;;;;;5029386;28;20045;-72
2023/01/15 07:28:42;;;;;;;16.30;15.70;;;6.20;99.90;;;;;;5030401;28;20017;-72
2023/01/15 07:31:08;;;;;;;19.23;18.52;;;6.10;99.90;;;;;;5022963;28;20025;-72
2023/01/15 07:33:34;;;;;;;18.35;17.65;;;6.10;99.90;;;;;;5031170;28;20044;-72
2023/01/15 07:36:03;;;;;;;16.98;16.38;;;6.00;99.90;;;;;;5026049;28;20021;-72
2023/01/15 07:38:29;;;;;;;15.25;14.68;;;5.90;99.90;;;;;;5025185;28;20037;-72
2023/01/15 07:51:57;;;;;;;11.30;10.90;;;5.40;99.90;;;;;;5034325;28;20384;-72
2023/01/15 07:54:22;;;;;;;18.92;18.23;;;5.30;99.90;;;;;;5033672;28;20033;-72
2023/01/15 07:56:50;;;;;;;13.15;12.65;;;5.20;99.90;;;;;;5019602;28;20502;-71
2023/01/15 07:59:15;;;;;;;4.32;4.22;;;5.10;99.90;;;;;;5034668;28;20031;-72
2023/01/15 08:01:41;;;;;;;5.88;5.68;;;5.10;99.90;;;;;;5028047;28;20030;-72
2023/01/15 08:04:08;;;;;;;11.35;10.95;;;5.00;99.90;;;;;;5026890;28;20026;-72
2023/01/15 08:06:34;;;;;;;12.10;11.70;;;4.90;99.90;;;;;;5028046;28;20036;-72
2023/01/15 08:08:59;;;;;;;6.13;5.93;;;4.90;99.90;;;;;;5033146;28;20017;-72
2023/01/15 08:16:53;;;;;;;5.85;5.65;;;4.90;99.90;;;;;;5033812;28;20040;-71
2023/01/15 08:19:19;;;;;;;2.35;2.25;;;4.90;99.90;;;;;;5034358;28;20383;-72
2023/01/15 08:21:45;;;;;;;5.88;5.68;;;4.70;99.90;;;;;;5034215;28;20115;-72
2023/01/15 08:24:10;;;;;;;5.45;5.25;;;4.70;99.90;;;;;;5034370;28;20025;-71
2023/01/15 08:26:36;;;;;;;5.75;5.55;;;4.70;99.90;;;;;;5034179;28;20467;-71
2023/01/15 08:29:01;;;;;;;7.20;7.00;;;4.60;99.90;;;;;;5033803;28;20022;-72
2023/01/15 08:31:27;;;;;;;6.57;6.38;;;4.60;99.90;;;;;;5034331;28;20426;-71
2023/01/15 08:33:52;;;;;;;4.50;4.40;;;4.60;99.90;;;;;;5030610;28;20022;-71
2023/01/15 08:36:18;;;;;;;5.40;5.20;;;4.60;99.90;;;;;;5023208;28;20063;-72
2023/01/15 08:38:44;;;;;;;6.30;6.10;;;4.70;99.90;;;;;;5019977;28;20025;-72
2023/01/15 08:41:09;;;;;;;5.88;5.68;;;4.70;99.90;;;;;;5024126;28;20026;-72
2023/01/15 08:43:35;;;;;;;6.78;6.57;;;4.70;99.90;;;;;;5030529;28;20029;-72
2023/01/15 08:46:03;;;;;;;6.57;6.38;;;4.70;99.90;;;;;;5032728;28;20022;-72
2023/01/15 08:48:30;;;;;;;6.35;6.15;;;4.70;99.90;;;;;;5033384;28;20475;-73
2023/01/15 08:50:57;;;;;;;5.70;5.50;;;4.70;99.90;;;;;;5023731;28;20117;-72
2023/01/15 08:53:23;;;;;;;6.82;6.63;;;4.80;99.90;;;;;;5030324;28;20100;-72
2023/01/15 08:55:49;;;;;;;5.43;5.22;;;4.80;99.90;;;;;;5023299;28;20403;-73
2023/01/15 08:58:15;;;;;;;6.43;6.22;;;4.90;99.90;;;;;;5011872;28;20069;-75
2023/01/15 09:00:42;;;;;;;6.00;5.80;;;4.90;99.90;;;;;;5018958;28;20030;-72
2023/01/15 09:03:07;;;;;;;5.38;5.18;;;4.70;99.90;;;;;;5023234;28;20555;-72
2023/01/15 09:05:35;;;;;;;6.00;5.80;;;4.70;99.90;;;;;;5024451;28;20144;-74
2023/01/15 09:08:00;;;;;;;6.18;5.97;;;4.70;99.90;;;;;;5015315;28;20083;-71
2023/01/15 09:10:26;;;;;;;7.13;6.93;;;4.80;99.90;;;;;;5020296;28;20481;-72
2023/01/15 09:12:51;;;;;;;6.32;6.13;;;4.90;99.90;;;;;;5027213;28;20024;-72
2023/01/15 09:15:17;;;;;;;5.00;4.80;;;4.80;99.90;;;;;;5022866;28;20168;-72
2023/01/15 09:17:42;;;;;;;5.78;5.57;;;4.80;99.90;;;;;;5031024;28;20025;-72
2023/01/15 09:20:12;;;;;;;6.68;6.47;;;4.70;99.90;;;;;;5026967;28;20052;-73
2023/01/15 09:22:37;;;;;;;6.75;6.55;;;4.60;99.90;;;;;;5026209;28;20026;-72
2023/01/15 09:25:03;;;;;;;6.43;6.22;;;4.60;99.90;;;;;;5030570;28;20353;-72
2023/01/15 09:27:29;;;;;;;7.22;7.00;;;4.50;99.90;;;;;;5032614;28;20014;-72
2023/01/15 09:29:55;;;;;;;5.68;5.47;;;4.40;99.90;;;;;;5031685;28;20033;-72
2023/01/15 09:32:21;;;;;;;4.90;4.70;;;4.40;99.90;;;;;;5033083;28;20040;-72
2023/01/15 09:34:47;;;;;;;4.15;4.00;;;4.40;99.90;;;;;;5022105;28;20030;-71
2023/01/15 09:37:13;;;;;;;7.03;6.82;;;4.30;99.90;;;;;;5017119;28;20021;-72
2023/01/15 09:39:39;;;;;;;7.70;7.40;;;4.30;99.90;;;;;;5032744;28;20033;-71
2023/01/15 09:42:32;;;;;;;5.88;5.68;;;4.30;99.90;;;;;;5028362;28;20037;-72
2023/01/15 09:45:09;;;;;;;7.47;7.22;;;4.30;99.90;;;;;;5019420;28;20022;-72
2023/01/15 09:47:43;;;;;;;6.45;6.25;;;4.20;99.90;;;;;;5024072;28;20100;-72
2023/01/15 09:50:20;;;;;;;3.92;3.83;;;4.10;99.90;;;;;;5025020;28;20127;-72
2023/01/15 09:52:48;;;;;;;5.28;5.07;;;4.20;99.90;;;;;;5031666;28;20060;-72
2023/01/15 09:55:26;;;;;;;5.47;5.28;;;4.20;99.90;;;;;;5024775;28;20034;-72
2023/01/15 09:57:57;;;;;;;5.53;5.32;;;4.10;99.90;;;;;;5041276;28;20037;-72
2023/01/15 10:00:25;;;;;;;6.80;6.60;;;4.10;99.90;;;;;;5031872;28;20040;-72
2023/01/15 10:03:03;;;;;;;6.22;5.82;;;4.40;99.90;;;;;;5031596;28;20033;-72
2023/01/15 10:05:42;;;;;;;5.22;5.03;;;4.10;99.90;;;;;;5030999;28;20028;-72
2023/01/15 10:08:22;;;;;;;5.85;5.65;;;3.90;99.90;;;;;;5029951;28;20056;-72
2023/01/15 10:10:53;;;;;;;5.47;5.28;;;3.90;99.90;;;;;;5031728;28;20041;-72
2023/01/15 10:13:28;;;;;;;4.13;4.03;;;3.80;99.90;;;;;;5032130;28;20025;-72
2023/01/15 10:15:54;;;;;;;3.63;3.53;;;3.70;99.90;;;;;;5032210;28;20585;-72
2023/01/15 10:18:23;;;;;;;4.57;4.47;;;3.80;99.90;;;;;;5030428;28;20495;-72
2023/01/15 10:21:07;;;;;;;5.60;5.40;;;3.90;99.90;;;;;;5028090;28;20101;-72
2023/01/15 10:23:50;;;;;;;5.53;5.32;;;3.90;99.90;;;;;;5018260;28;20033;-72
2023/01/15 10:26:29;;;;;;;5.18;4.97;;;3.90;99.90;;;;;;5018942;28;20025;-72
2023/01/15 10:29:00;;;;;;;5.10;4.90;;;3.90;99.90;;;;;;5031702;28;20104;-72
2023/01/15 10:31:53;;;;;;;3.03;2.92;;;3.70;99.90;;;;;;5031772;28;20025;-72
2023/01/15 10:34:28;;;;;;;7.05;6.75;;;3.80;99.90;;;;;;5029674;28;20056;-72
2023/01/15 10:37:11;;;;;;;5.70;5.50;;;3.80;99.90;;;;;;5030908;28;20033;-72
2023/01/15 10:39:40;;;;;;;6.40;6.20;;;3.90;99.90;;;;;;5031444;28;20037;-72
2023/01/15 10:42:14;;;;;;;5.18;4.97;;;3.80;99.90;;;;;;5032028;28;20072;-72
2023/01/15 10:44:43;;;;;;;6.75;6.55;;;3.90;99.90;;;;;;5030745;28;20047;-72
2023/01/15 10:47:16;;;;;;;5.97;5.78;;;3.90;99.90;;;;;;5031614;28;20026;-72
2023/01/15 10:49:42;;;;;;;5.45;5.25;;;3.80;99.90;;;;;;5030433;28;20480;-72
2023/01/15 10:52:30;;;;;;;5.28;5.07;;;3.90;99.90;;;;;;5030539;28;20106;-72
2023/01/15 10:55:39;;;;;;;5.55;5.35;;;3.80;99.90;;;;;;5031662;28;20454;-72
2023/01/15 10:58:12;;;;;;;6.35;6.15;;;3.80;99.90;;;;;;5028387;28;20042;-72
2023/01/15 11:00:38;;;;;;;5.68;5.47;;;3.80;99.90;;;;;;5031559;28;20501;-73
2023/01/15 11:03:17;;;;;;;7.20;7.00;;;3.80;99.90;;;;;;5031485;28;20029;-72
2023/01/15 11:05:46;;;;;;;6.40;6.20;;;3.70;99.90;;;;;;5031724;28;20017;-72
2023/01/15 11:08:34;;;;;;;6.50;6.30;;;3.70;99.90;;;;;;5031266;28;20030;-72
2023/01/15 11:19:35;;;;;;;8.10;7.80;;;3.60;99.90;;;;;;5030136;28;20095;-72
2023/01/15 11:20:17;;;;;;;10.10;9.70;;;3.40;99.90;;;;;;5035467;28;20040;-72
2023/01/15 11:22:42;;;;;;;6.50;6.30;;;3.40;99.90;;;;;;5033982;28;20159;-72
2023/01/15 11:25:09;;;;;;;6.72;6.53;;;3.30;99.90;;;;;;5035516;28;20554;-72
2023/01/15 11:27:36;;;;;;;8.70;8.40;;;3.30;99.90;;;;;;5033606;28;20051;-72
2023/01/15 11:30:06;;;;;;;6.18;5.97;;;3.20;99.90;;;;;;5035339;28;20021;-72
2023/01/15 11:32:35;;;;;;;7.43;7.13;;;3.20;99.90;;;;;;5035309;28;20575;-72
2023/01/15 11:35:08;;;;;;;6.93;6.65;;;3.30;99.90;;;;;;5035290;28;20112;-72
2023/01/15 11:37:33;;;;;;;9.05;8.75;;;3.20;99.90;;;;;;5033677;28;20025;-72
2023/01/15 11:40:07;;;;;;;7.82;7.53;;;3.00;99.90;;;;;;5034820;28;20079;-72
2023/01/15 11:51:13;;;;;;;4.13;4.03;;;3.20;99.90;;;;;;5023685;28;19920;-71
2023/01/15 11:53:45;;;;;;;6.30;6.07;;;3.20;99.90;;;;;;5022221;28;20033;-71
2023/01/15 11:56:15;;;;;;;4.70;4.50;;;3.20;99.90;;;;;;5035172;28;20022;-72
2023/01/15 11:58:48;;;;;;;3.35;3.25;;;3.10;99.90;;;;;;5034820;28;20074;-72
2023/01/15 12:01:32;;;;;;;3.75;3.65;;;3.10;99.90;;;;;;5033798;28;20376;-72
2023/01/15 12:03:59;;;;;;;4.45;4.35;;;3.10;99.90;;;;;;5022063;28;20185;-72
2023/01/15 12:06:26;;;;;;;5.05;4.85;;;3.10;99.90;;;;;;5019103;28;20045;-72
2023/01/15 12:08:55;;;;;;;6.30;6.10;;;3.00;99.90;;;;;;5030772;28;20476;-72
2023/01/15 12:12:16;;;;;;;7.00;6.80;;;3.00;99.90;;;;;;5024974;28;20032;-75
2023/01/15 12:14:58;;;;;;;5.93;5.72;;;3.00;99.90;;;;;;4960862;28;20034;-72
2023/01/15 12:17:45;;;;;;;6.28;6.07;;;3.10;99.90;;;;;;4956812;28;20081;-72
2023/01/15 12:20:19;;;;;;;6.13;5.93;;;3.10;99.90;;;;;;5008242;28;20040;-72
2023/01/15 12:23:06;;;;;;;4.90;4.70;;;3.10;99.90;;;;;;5020885;28;20116;-72
2023/01/15 12:25:55;;;;;;;5.35;5.15;;;3.10;99.90;;;;;;5021952;28;20033;-72
2023/01/15 12:28:30;;;;;;;4.18;3.97;;;3.00;99.90;;;;;;5015057;28;20076;-71
2023/01/15 12:30:59;;;;;;;6.07;5.88;;;2.80;99.90;;;;;;5032543;28;20021;-71
2023/01/15 12:33:39;;;;;;;8.45;8.15;;;2.80;99.90;;;;;;5022590;28;20390;-72
2023/01/15 12:36:11;;;;;;;9.93;9.52;;;2.90;99.90;;;;;;5025171;28;20125;-71
2023/01/15 12:39:02;;;;;;;12.65;11.82;;;2.90;99.90;;;;;;5020334;28;20036;-72
2023/01/15 12:44:59;;;;;;;7.40;7.15;;;2.90;99.90;;;;;;5024747;28;20029;-72
2023/01/15 12:47:15;;;;;;;5.85;5.65;;;3.10;99.90;;;;;;5020431;28;20506;-72
2023/01/15 12:49:50;;;;;;;7.20;7.00;;;3.10;99.90;;;;;;5028739;28;20032;-72
2023/01/15 12:52:23;;;;;;;8.05;7.75;;;3.20;99.90;;;;;;5026711;28;20395;-72
2023/01/15 12:54:54;;;;;;;7.15;6.95;;;3.20;99.90;;;;;;5029447;28;20497;-72
2023/01/15 12:57:42;;;;;;;7.85;7.55;;;3.30;99.90;;;;;;5032431;28;20035;-72
2023/01/15 13:00:19;;;;;;;8.95;8.65;;;3.40;99.90;;;;;;5021045;28;20103;-72
2023/01/15 13:03:25;;;;;;;8.27;7.97;;;3.50;99.90;;;;;;5033781;28;20025;-72
2023/01/15 13:05:56;;;;;;;7.32;7.10;;;3.50;99.90;;;;;;5033705;28;20498;-72
2023/01/15 13:08:28;;;;;;;7.40;7.15;;;3.60;99.90;;;;;;5032813;28;20080;-72
2023/01/15 13:10:54;;;;;;;7.22;7.03;;;3.50;99.90;;;;;;5029030;28;20462;-72
2023/01/15 13:13:28;;;;;;;7.40;7.18;;;3.50;99.90;;;;;;5021952;28;20034;-72
2023/01/15 13:16:25;;;;;;;7.53;7.22;;;3.60;99.90;;;;;;5021491;28;20029;-72
2023/01/15 13:19:16;;;;;;;8.30;8.00;;;3.50;99.90;;;;;;5022381;28;20032;-71
2023/01/15 13:21:45;;;;;;;9.25;8.95;;;3.50;99.90;;;;;;5022467;28;20120;-72
2023/01/15 13:24:45;;;;;;;9.88;9.48;;;3.40;99.90;;;;;;5033229;28;20080;-72
2023/01/15 13:27:36;;;;;;;9.93;9.60;;;3.50;99.90;;;;;;5033085;28;20018;-71
2023/01/15 13:30:31;;;;;;;10.95;10.55;;;3.30;99.90;;;;;;5040372;28;20379;-72
2023/01/15 13:33:18;;;;;;;10.75;10.35;;;3.30;99.90;;;;;;5024124;28;20017;-72
2023/01/15 13:35:50;;;;;;;12.52;12.10;;;3.30;99.90;;;;;;5025488;28;20052;-72
2023/01/15 13:38:21;;;;;;;11.13;10.73;;;3.30;99.90;;;;;;5025401;28;20095;-72
2023/01/15 13:40:51;;;;;;;9.27;8.98;;;3.30;99.90;;;;;;5017080;28;20017;-72
2023/01/15 13:43:39;;;;;;;11.18;10.70;;;3.40;99.90;;;;;;5022216;28;20403;-72
2023/01/15 13:46:11;;;;;;;8.13;7.82;;;3.40;99.90;;;;;;5017461;28;20018;-72
2023/01/15 13:48:45;;;;;;;8.68;8.38;;;3.50;99.90;;;;;;5015497;28;20555;-71
2023/01/15 13:51:42;;;;;;;9.25;8.95;;;3.50;99.90;;;;;;5025746;28;20116;-72
2023/01/15 13:54:17;;;;;;;13.10;12.60;;;3.50;99.90;;;;;;5022890;28;20448;-72